KCLS

Details ICAO KCLS
Name CHEHALIS CENTRALIA
Region United States
Timezone America/Los_Angeles (UTC-7.0)
Plans Departing 7
Arriving 8
Stats Elevation 176 ft / 54 m (AMSL)
Location 46.677030° -122.982748°
Runways 1
Magnetic Variation 15.556° E
Sunrise 2018-05-26 12:27:43 UTC / 2018-05-26 05:27:43 Local
Sunset 2018-05-27 03:53:11 UTC / 2018-05-26 20:53:11 Local
Advertisement - Login to hide

Runways

ID Width Length Bearing (true) Bearing (mag) Surface Threshold Offset Overrun Length
16 150 ft / 46 m 5,004 ft / 1,525 m 177.80° 162.24° Concrete 0 ft / 0 m 0 ft / 0 m
34 150 ft / 46 m 5,004 ft / 1,525 m 357.80° 342.24° Concrete 0 ft / 0 m 0 ft / 0 m

Map

Weather


0- 5 10 15 20 25 30 35+ Temperature / ° C

Clouds and Precipitation
Forecast for 2018-05-27 00:00 UTC. Updated 3 hours ago

Ground ~20,000 ft ~40,000 ft Winds

METAR

KCLS 270155Z AUTO 33007G15KT 10SM CLR 19/09 A3019 RMK AO2

TAF

Not found

Frequencies

Unicom 122.80 MHz CTAF/UNICOM
Departure 124.20 MHz SEATTLE DEP
Approach 121.10 MHz SEATTLE APP
Warning: Do not use this data for real-world aviation or navigation. No guarantee of current accuracy is given.